sensor_id;sensor_type;location;lat;lon;timestamp;P1;durP1;ratioP1;P2;durP2;ratioP2
45368;SDS011;51342;55.250;37.668;2022-11-11T00:04:08;45.60;;;21.20;;
45368;SDS011;51342;55.250;37.668;2022-11-11T00:06:58;38.43;;;20.53;;
45368;SDS011;51342;55.250;37.668;2022-11-11T00:09:48;41.95;;;20.25;;
45368;SDS011;51342;55.250;37.668;2022-11-11T00:12:38;43.73;;;20.37;;
45368;SDS011;51342;55.250;37.668;2022-11-11T00:15:28;43.03;;;21.17;;
45368;SDS011;51342;55.250;37.668;2022-11-11T00:18:18;38.72;;;19.73;;
45368;SDS011;51342;55.250;37.668;2022-11-11T00:21:28;38.80;;;19.23;;
45368;SDS011;51342;55.250;37.668;2022-11-11T00:24:34;36.33;;;17.57;;
45368;SDS011;51342;55.250;37.668;2022-11-11T00:27:42;36.93;;;18.67;;
45368;SDS011;51342;55.250;37.668;2022-11-11T00:30:32;33.60;;;18.23;;
45368;SDS011;51342;55.250;37.668;2022-11-11T00:33:22;36.87;;;18.57;;
45368;SDS011;51342;55.250;37.668;2022-11-11T00:36:12;30.47;;;17.30;;
45368;SDS011;51342;55.250;37.668;2022-11-11T00:39:02;31.70;;;17.03;;
45368;SDS011;51342;55.250;37.668;2022-11-11T00:41:52;35.97;;;17.27;;
45368;SDS011;51342;55.250;37.668;2022-11-11T00:44:42;32.90;;;17.33;;
45368;SDS011;51342;55.250;37.668;2022-11-11T00:47:32;36.83;;;17.20;;
45368;SDS011;51342;55.250;37.668;2022-11-11T00:50:41;30.83;;;15.93;;
45368;SDS011;51342;55.250;37.668;2022-11-11T00:53:49;34.73;;;16.27;;
45368;SDS011;51342;55.250;37.668;2022-11-11T00:56:39;34.27;;;17.40;;
45368;SDS011;51342;55.250;37.668;2022-11-11T00:59:29;29.07;;;16.13;;
45368;SDS011;51342;55.250;37.668;2022-11-11T01:02:19;30.50;;;16.00;;
45368;SDS011;51342;55.250;37.668;2022-11-11T01:05:09;31.70;;;16.20;;
45368;SDS011;51342;55.250;37.668;2022-11-11T01:07:59;27.20;;;15.57;;
45368;SDS011;51342;55.250;37.668;2022-11-11T01:10:49;30.50;;;15.40;;
45368;SDS011;51342;55.250;37.668;2022-11-11T01:13:40;34.30;;;16.97;;
45368;SDS011;51342;55.250;37.668;2022-11-11T01:16:30;28.23;;;14.73;;
45368;SDS011;51342;55.250;37.668;2022-11-11T01:19:20;27.38;;;13.52;;
45368;SDS011;51342;55.250;37.668;2022-11-11T01:22:10;29.77;;;14.30;;
45368;SDS011;51342;55.250;37.668;2022-11-11T01:25:00;23.83;;;13.53;;
45368;SDS011;51342;55.250;37.668;2022-11-11T01:27:50;28.10;;;14.93;;
45368;SDS011;51342;55.250;37.668;2022-11-11T01:30:40;25.40;;;14.20;;
45368;SDS011;51342;55.250;37.668;2022-11-11T01:33:30;25.60;;;13.10;;
45368;SDS011;51342;55.250;37.668;2022-11-11T01:36:22;23.17;;;13.15;;
45368;SDS011;51342;55.250;37.668;2022-11-11T01:39:14;23.03;;;12.00;;
45368;SDS011;51342;55.250;37.668;2022-11-11T01:42:04;20.83;;;12.17;;
45368;SDS011;51342;55.250;37.668;2022-11-11T01:44:54;19.30;;;11.70;;
45368;SDS011;51342;55.250;37.668;2022-11-11T01:47:44;22.80;;;12.23;;
45368;SDS011;51342;55.250;37.668;2022-11-11T01:50:53;20.97;;;12.07;;
45368;SDS011;51342;55.250;37.668;2022-11-11T01:53:46;20.57;;;11.60;;
45368;SDS011;51342;55.250;37.668;2022-11-11T01:56:45;20.23;;;11.30;;
45368;SDS011;51342;55.250;37.668;2022-11-11T01:59:37;21.43;;;11.73;;
45368;SDS011;51342;55.250;37.668;2022-11-11T02:02:43;21.50;;;11.87;;
45368;SDS011;51342;55.250;37.668;2022-11-11T02:05:34;20.70;;;12.03;;
45368;SDS011;51342;55.250;37.668;2022-11-11T02:08:35;18.43;;;11.20;;
45368;SDS011;51342;55.250;37.668;2022-11-11T02:11:25;22.37;;;12.37;;
45368;SDS011;51342;55.250;37.668;2022-11-11T02:14:39;19.97;;;11.33;;
45368;SDS011;51342;55.250;37.668;2022-11-11T02:17:32;19.13;;;11.83;;
45368;SDS011;51342;55.250;37.668;2022-11-11T02:20:23;16.93;;;11.37;;
45368;SDS011;51342;55.250;37.668;2022-11-11T02:26:39;22.30;;;11.30;;
45368;SDS011;51342;55.250;37.668;2022-11-11T02:29:31;21.10;;;11.03;;
45368;SDS011;51342;55.250;37.668;2022-11-11T02:32:23;20.13;;;11.13;;
45368;SDS011;51342;55.250;37.668;2022-11-11T02:35:14;20.47;;;11.30;;
45368;SDS011;51342;55.250;37.668;2022-11-11T02:38:22;21.30;;;11.20;;
45368;SDS011;51342;55.250;37.668;2022-11-11T02:41:13;22.97;;;11.60;;
45368;SDS011;51342;55.250;37.668;2022-11-11T02:44:22;21.63;;;11.97;;
45368;SDS011;51342;55.250;37.668;2022-11-11T02:47:12;19.90;;;11.03;;
45368;SDS011;51342;55.250;37.668;2022-11-11T02:50:03;21.27;;;11.80;;
45368;SDS011;51342;55.250;37.668;2022-11-11T02:52:53;26.87;;;14.50;;
45368;SDS011;51342;55.250;37.668;2022-11-11T02:55:43;21.33;;;12.67;;
45368;SDS011;51342;55.250;37.668;2022-11-11T02:58:33;23.50;;;13.03;;
45368;SDS011;51342;55.250;37.668;2022-11-11T03:01:23;22.87;;;13.43;;
45368;SDS011;51342;55.250;37.668;2022-11-11T03:04:13;21.00;;;11.60;;
45368;SDS011;51342;55.250;37.668;2022-11-11T03:07:03;22.40;;;11.70;;
45368;SDS011;51342;55.250;37.668;2022-11-11T03:09:53;24.27;;;12.93;;
45368;SDS011;51342;55.250;37.668;2022-11-11T03:12:43;22.83;;;12.80;;
45368;SDS011;51342;55.250;37.668;2022-11-11T03:15:33;19.93;;;10.50;;
45368;SDS011;51342;55.250;37.668;2022-11-11T03:18:23;24.33;;;11.73;;
45368;SDS011;51342;55.250;37.668;2022-11-11T03:21:13;19.93;;;10.83;;
45368;SDS011;51342;55.250;37.668;2022-11-11T03:24:03;22.43;;;11.00;;
45368;SDS011;51342;55.250;37.668;2022-11-11T03:26:54;19.17;;;10.60;;
45368;SDS011;51342;55.250;37.668;2022-11-11T03:29:44;19.40;;;10.87;;
45368;SDS011;51342;55.250;37.668;2022-11-11T03:32:34;19.67;;;11.20;;
45368;SDS011;51342;55.250;37.668;2022-11-11T03:35:24;21.65;;;11.25;;
45368;SDS011;51342;55.250;37.668;2022-11-11T03:38:14;18.57;;;10.40;;
45368;SDS011;51342;55.250;37.668;2022-11-11T03:41:04;16.70;;;10.30;;
45368;SDS011;51342;55.250;37.668;2022-11-11T03:43:54;20.33;;;10.37;;
45368;SDS011;51342;55.250;37.668;2022-11-11T03:46:44;19.60;;;10.80;;
45368;SDS011;51342;55.250;37.668;2022-11-11T03:49:34;17.57;;;10.27;;
45368;SDS011;51342;55.250;37.668;2022-11-11T03:52:24;20.67;;;11.23;;
45368;SDS011;51342;55.250;37.668;2022-11-11T03:55:14;18.17;;;9.53;;
45368;SDS011;51342;55.250;37.668;2022-11-11T03:58:04;23.57;;;11.20;;
45368;SDS011;51342;55.250;37.668;2022-11-11T04:00:54;18.87;;;10.90;;
45368;SDS011;51342;55.250;37.668;2022-11-11T04:03:44;18.83;;;10.77;;
45368;SDS011;51342;55.250;37.668;2022-11-11T04:06:53;17.97;;;9.60;;
45368;SDS011;51342;55.250;37.668;2022-11-11T04:10:02;19.33;;;9.60;;
45368;SDS011;51342;55.250;37.668;2022-11-11T04:13:11;17.23;;;9.43;;
45368;SDS011;51342;55.250;37.668;2022-11-11T04:16:20;16.20;;;8.60;;
45368;SDS011;51342;55.250;37.668;2022-11-11T04:19:10;17.13;;;9.67;;
45368;SDS011;51342;55.250;37.668;2022-11-11T04:22:19;15.20;;;8.97;;
45368;SDS011;51342;55.250;37.668;2022-11-11T04:25:09;14.50;;;8.43;;
45368;SDS011;51342;55.250;37.668;2022-11-11T04:28:18;16.37;;;8.93;;
45368;SDS011;51342;55.250;37.668;2022-11-11T04:31:26;15.97;;;8.90;;
45368;SDS011;51342;55.250;37.668;2022-11-11T04:34:16;12.13;;;7.53;;
45368;SDS011;51342;55.250;37.668;2022-11-11T04:37:06;13.83;;;8.57;;
45368;SDS011;51342;55.250;37.668;2022-11-11T04:39:56;13.13;;;8.10;;
45368;SDS011;51342;55.250;37.668;2022-11-11T04:43:05;13.33;;;8.60;;
45368;SDS011;51342;55.250;37.668;2022-11-11T04:45:58;11.70;;;7.30;;
45368;SDS011;51342;55.250;37.668;2022-11-11T04:48:48;11.70;;;7.57;;
45368;SDS011;51342;55.250;37.668;2022-11-11T04:51:39;13.33;;;7.77;;
45368;SDS011;51342;55.250;37.668;2022-11-11T04:54:47;14.03;;;7.90;;
45368;SDS011;51342;55.250;37.668;2022-11-11T04:57:55;10.93;;;7.93;;
45368;SDS011;51342;55.250;37.668;2022-11-11T05:00:45;11.50;;;6.87;;
45368;SDS011;51342;55.250;37.668;2022-11-11T05:03:35;11.97;;;7.43;;
45368;SDS011;51342;55.250;37.668;2022-11-11T05:06:25;13.03;;;7.07;;
45368;SDS011;51342;55.250;37.668;2022-11-11T05:09:34;10.53;;;6.70;;
45368;SDS011;51342;55.250;37.668;2022-11-11T05:12:24;11.07;;;6.50;;
45368;SDS011;51342;55.250;37.668;2022-11-11T05:15:14;11.47;;;7.07;;
45368;SDS011;51342;55.250;37.668;2022-11-11T05:18:22;9.07;;;6.27;;
45368;SDS011;51342;55.250;37.668;2022-11-11T05:21:31;11.87;;;6.87;;
45368;SDS011;51342;55.250;37.668;2022-11-11T05:24:21;10.37;;;6.57;;
45368;SDS011;51342;55.250;37.668;2022-11-11T05:27:29;11.07;;;7.07;;
45368;SDS011;51342;55.250;37.668;2022-11-11T05:30:19;11.57;;;6.97;;
45368;SDS011;51342;55.250;37.668;2022-11-11T05:33:11;12.30;;;6.37;;
45368;SDS011;51342;55.250;37.668;2022-11-11T05:36:00;11.80;;;6.67;;
45368;SDS011;51342;55.250;37.668;2022-11-11T05:38:51;10.20;;;6.53;;
45368;SDS011;51342;55.250;37.668;2022-11-11T05:41:41;9.83;;;6.77;;
45368;SDS011;51342;55.250;37.668;2022-11-11T05:44:31;10.37;;;6.90;;
45368;SDS011;51342;55.250;37.668;2022-11-11T05:47:20;12.27;;;7.00;;
45368;SDS011;51342;55.250;37.668;2022-11-11T05:50:10;9.67;;;6.17;;
45368;SDS011;51342;55.250;37.668;2022-11-11T05:53:00;11.27;;;6.53;;
45368;SDS011;51342;55.250;37.668;2022-11-11T05:55:50;10.73;;;6.73;;
45368;SDS011;51342;55.250;37.668;2022-11-11T05:58:40;12.30;;;7.50;;
45368;SDS011;51342;55.250;37.668;2022-11-11T06:01:31;11.13;;;7.00;;
45368;SDS011;51342;55.250;37.668;2022-11-11T06:04:21;11.50;;;7.00;;
45368;SDS011;51342;55.250;37.668;2022-11-11T06:07:11;10.73;;;6.80;;
45368;SDS011;51342;55.250;37.668;2022-11-11T06:10:01;11.97;;;7.33;;
45368;SDS011;51342;55.250;37.668;2022-11-11T06:13:10;14.57;;;7.80;;
45368;SDS011;51342;55.250;37.668;2022-11-11T06:16:03;11.07;;;6.60;;
45368;SDS011;51342;55.250;37.668;2022-11-11T06:18:54;12.17;;;7.60;;
45368;SDS011;51342;55.250;37.668;2022-11-11T06:21:44;14.07;;;8.33;;
45368;SDS011;51342;55.250;37.668;2022-11-11T06:24:46;12.27;;;8.20;;
45368;SDS011;51342;55.250;37.668;2022-11-11T06:27:55;14.20;;;7.93;;
45368;SDS011;51342;55.250;37.668;2022-11-11T06:30:45;14.23;;;8.33;;
45368;SDS011;51342;55.250;37.668;2022-11-11T06:33:36;14.37;;;8.30;;
45368;SDS011;51342;55.250;37.668;2022-11-11T06:36:26;14.13;;;8.43;;
45368;SDS011;51342;55.250;37.668;2022-11-11T06:39:17;16.83;;;9.10;;
45368;SDS011;51342;55.250;37.668;2022-11-11T06:42:07;17.83;;;8.60;;
45368;SDS011;51342;55.250;37.668;2022-11-11T06:44:57;16.63;;;8.53;;
45368;SDS011;51342;55.250;37.668;2022-11-11T06:47:46;11.97;;;7.57;;
45368;SDS011;51342;55.250;37.668;2022-11-11T06:50:36;14.07;;;8.00;;
45368;SDS011;51342;55.250;37.668;2022-11-11T06:53:26;14.70;;;8.47;;
45368;SDS011;51342;55.250;37.668;2022-11-11T06:56:17;14.63;;;8.80;;
45368;SDS011;51342;55.250;37.668;2022-11-11T06:59:07;17.83;;;9.00;;
45368;SDS011;51342;55.250;37.668;2022-11-11T07:01:57;14.27;;;8.73;;
45368;SDS011;51342;55.250;37.668;2022-11-11T07:04:47;14.73;;;9.40;;
45368;SDS011;51342;55.250;37.668;2022-11-11T07:07:37;14.50;;;8.40;;
45368;SDS011;51342;55.250;37.668;2022-11-11T07:10:27;13.77;;;7.90;;
45368;SDS011;51342;55.250;37.668;2022-11-11T07:13:17;14.43;;;9.30;;
45368;SDS011;51342;55.250;37.668;2022-11-11T07:16:07;14.67;;;8.67;;
45368;SDS011;51342;55.250;37.668;2022-11-11T07:18:58;15.50;;;8.87;;
45368;SDS011;51342;55.250;37.668;2022-11-11T07:21:48;15.47;;;8.43;;
45368;SDS011;51342;55.250;37.668;2022-11-11T07:24:38;17.30;;;9.17;;
45368;SDS011;51342;55.250;37.668;2022-11-11T07:27:28;15.00;;;8.70;;
45368;SDS011;51342;55.250;37.668;2022-11-11T07:30:18;16.50;;;8.67;;
45368;SDS011;51342;55.250;37.668;2022-11-11T07:33:09;16.37;;;9.67;;
45368;SDS011;51342;55.250;37.668;2022-11-11T07:35:58;15.90;;;9.37;;
45368;SDS011;51342;55.250;37.668;2022-11-11T07:38:48;17.77;;;9.27;;
45368;SDS011;51342;55.250;37.668;2022-11-11T07:41:38;15.67;;;8.97;;
45368;SDS011;51342;55.250;37.668;2022-11-11T07:44:28;15.07;;;8.70;;
45368;SDS011;51342;55.250;37.668;2022-11-11T07:47:18;16.30;;;8.53;;
45368;SDS011;51342;55.250;37.668;2022-11-11T07:50:08;15.50;;;9.23;;
45368;SDS011;51342;55.250;37.668;2022-11-11T07:52:58;16.17;;;8.23;;
45368;SDS011;51342;55.250;37.668;2022-11-11T07:55:48;16.23;;;9.23;;
45368;SDS011;51342;55.250;37.668;2022-11-11T07:58:38;14.83;;;8.60;;
45368;SDS011;51342;55.250;37.668;2022-11-11T08:01:28;15.53;;;8.50;;
45368;SDS011;51342;55.250;37.668;2022-11-11T08:04:18;14.27;;;8.43;;
45368;SDS011;51342;55.250;37.668;2022-11-11T08:07:08;15.73;;;9.17;;
45368;SDS011;51342;55.250;37.668;2022-11-11T08:09:58;15.23;;;8.80;;
45368;SDS011;51342;55.250;37.668;2022-11-11T08:12:55;13.77;;;7.90;;
45368;SDS011;51342;55.250;37.668;2022-11-11T08:16:05;14.50;;;8.10;;
45368;SDS011;51342;55.250;37.668;2022-11-11T08:18:58;13.90;;;7.87;;
45368;SDS011;51342;55.250;37.668;2022-11-11T08:21:50;12.60;;;7.87;;
45368;SDS011;51342;55.250;37.668;2022-11-11T08:24:40;11.37;;;6.77;;
45368;SDS011;51342;55.250;37.668;2022-11-11T08:27:30;12.63;;;7.73;;
45368;SDS011;51342;55.250;37.668;2022-11-11T08:30:20;13.68;;;7.78;;
45368;SDS011;51342;55.250;37.668;2022-11-11T08:33:10;13.87;;;7.33;;
45368;SDS011;51342;55.250;37.668;2022-11-11T08:35:59;10.80;;;7.20;;
45368;SDS011;51342;55.250;37.668;2022-11-11T08:38:50;14.73;;;8.60;;
45368;SDS011;51342;55.250;37.668;2022-11-11T08:41:40;10.03;;;6.60;;
45368;SDS011;51342;55.250;37.668;2022-11-11T08:44:30;13.53;;;7.73;;
45368;SDS011;51342;55.250;37.668;2022-11-11T08:47:20;12.83;;;7.47;;
45368;SDS011;51342;55.250;37.668;2022-11-11T08:50:12;13.23;;;7.67;;
45368;SDS011;51342;55.250;37.668;2022-11-11T08:53:02;12.43;;;6.80;;
45368;SDS011;51342;55.250;37.668;2022-11-11T08:55:52;12.50;;;7.47;;
45368;SDS011;51342;55.250;37.668;2022-11-11T08:58:42;13.60;;;7.47;;
45368;SDS011;51342;55.250;37.668;2022-11-11T09:01:32;9.50;;;6.43;;
45368;SDS011;51342;55.250;37.668;2022-11-11T09:04:22;10.00;;;6.37;;
45368;SDS011;51342;55.250;37.668;2022-11-11T09:07:12;11.17;;;7.87;;
45368;SDS011;51342;55.250;37.668;2022-11-11T09:10:02;12.20;;;7.20;;
45368;SDS011;51342;55.250;37.668;2022-11-11T09:12:58;11.27;;;7.27;;
45368;SDS011;51342;55.250;37.668;2022-11-11T09:15:49;11.53;;;6.97;;
45368;SDS011;51342;55.250;37.668;2022-11-11T09:18:41;9.32;;;6.88;;
45368;SDS011;51342;55.250;37.668;2022-11-11T09:21:32;10.23;;;6.60;;
45368;SDS011;51342;55.250;37.668;2022-11-11T09:24:22;9.67;;;6.87;;
45368;SDS011;51342;55.250;37.668;2022-11-11T09:27:12;11.67;;;6.80;;
45368;SDS011;51342;55.250;37.668;2022-11-11T09:30:03;8.57;;;5.93;;
45368;SDS011;51342;55.250;37.668;2022-11-11T09:32:53;10.93;;;6.33;;
45368;SDS011;51342;55.250;37.668;2022-11-11T09:35:43;11.00;;;6.80;;
45368;SDS011;51342;55.250;37.668;2022-11-11T09:38:33;9.80;;;5.73;;
45368;SDS011;51342;55.250;37.668;2022-11-11T09:41:27;11.77;;;6.53;;
45368;SDS011;51342;55.250;37.668;2022-11-11T09:50:44;10.67;;;6.20;;
45368;SDS011;51342;55.250;37.668;2022-11-11T09:53:43;9.47;;;6.17;;
45368;SDS011;51342;55.250;37.668;2022-11-11T09:56:42;8.50;;;5.90;;
45368;SDS011;51342;55.250;37.668;2022-11-11T09:59:39;9.10;;;6.50;;
45368;SDS011;51342;55.250;37.668;2022-11-11T10:02:38;10.25;;;6.45;;
45368;SDS011;51342;55.250;37.668;2022-11-11T10:05:33;10.00;;;6.07;;
45368;SDS011;51342;55.250;37.668;2022-11-11T10:08:36;10.00;;;6.53;;
45368;SDS011;51342;55.250;37.668;2022-11-11T10:11:50;9.53;;;6.30;;
45368;SDS011;51342;55.250;37.668;2022-11-11T10:14:49;11.60;;;7.53;;
45368;SDS011;51342;55.250;37.668;2022-11-11T10:17:57;10.73;;;6.70;;
45368;SDS011;51342;55.250;37.668;2022-11-11T10:21:12;12.57;;;7.47;;
45368;SDS011;51342;55.250;37.668;2022-11-11T10:24:05;11.30;;;7.40;;
45368;SDS011;51342;55.250;37.668;2022-11-11T10:27:05;10.30;;;7.07;;
45368;SDS011;51342;55.250;37.668;2022-11-11T10:30:28;11.13;;;6.88;;
45368;SDS011;51342;55.250;37.668;2022-11-11T10:36:21;11.35;;;7.88;;
45368;SDS011;51342;55.250;37.668;2022-11-11T10:39:15;12.60;;;7.50;;
45368;SDS011;51342;55.250;37.668;2022-11-11T10:42:17;12.82;;;7.82;;
45368;SDS011;51342;55.250;37.668;2022-11-11T10:48:19;11.20;;;7.87;;
45368;SDS011;51342;55.250;37.668;2022-11-11T10:51:14;11.80;;;8.17;;
45368;SDS011;51342;55.250;37.668;2022-11-11T10:57:20;12.80;;;8.70;;
45368;SDS011;51342;55.250;37.668;2022-11-11T11:00:17;11.88;;;8.20;;
45368;SDS011;51342;55.250;37.668;2022-11-11T11:03:15;12.20;;;8.15;;
45368;SDS011;51342;55.250;37.668;2022-11-11T11:06:21;12.37;;;7.87;;
45368;SDS011;51342;55.250;37.668;2022-11-11T11:09:19;11.27;;;7.30;;
45368;SDS011;51342;55.250;37.668;2022-11-11T11:12:16;12.75;;;8.30;;
45368;SDS011;51342;55.250;37.668;2022-11-11T11:15:31;12.60;;;8.40;;
45368;SDS011;51342;55.250;37.668;2022-11-11T11:18:25;11.90;;;7.23;;
45368;SDS011;51342;55.250;37.668;2022-11-11T11:21:15;11.95;;;8.20;;
45368;SDS011;51342;55.250;37.668;2022-11-11T11:24:07;12.35;;;7.55;;
45368;SDS011;51342;55.250;37.668;2022-11-11T11:27:07;12.45;;;8.38;;
45368;SDS011;51342;55.250;37.668;2022-11-11T11:30:01;12.65;;;8.15;;
45368;SDS011;51342;55.250;37.668;2022-11-11T11:33:01;12.37;;;8.13;;
45368;SDS011;51342;55.250;37.668;2022-11-11T11:35:53;10.97;;;7.60;;
45368;SDS011;51342;55.250;37.668;2022-11-11T11:38:44;12.27;;;8.30;;
45368;SDS011;51342;55.250;37.668;2022-11-11T11:44:28;11.77;;;7.63;;
45368;SDS011;51342;55.250;37.668;2022-11-11T11:47:42;9.52;;;6.85;;
45368;SDS011;51342;55.250;37.668;2022-11-11T11:50:46;9.85;;;6.57;;
45368;SDS011;51342;55.250;37.668;2022-11-11T11:53:47;12.05;;;8.13;;
45368;SDS011;51342;55.250;37.668;2022-11-11T11:56:49;12.83;;;7.43;;
45368;SDS011;51342;55.250;37.668;2022-11-11T11:59:45;11.48;;;7.20;;
45368;SDS011;51342;55.250;37.668;2022-11-11T12:02:55;10.15;;;7.10;;
45368;SDS011;51342;55.250;37.668;2022-11-11T12:06:02;10.70;;;7.17;;
45368;SDS011;51342;55.250;37.668;2022-11-11T12:15:26;12.53;;;7.60;;
45368;SDS011;51342;55.250;37.668;2022-11-11T12:21:38;13.00;;;7.40;;
45368;SDS011;51342;55.250;37.668;2022-11-11T12:24:49;10.13;;;7.40;;
45368;SDS011;51342;55.250;37.668;2022-11-11T12:34:34;11.70;;;7.60;;
45368;SDS011;51342;55.250;37.668;2022-11-11T12:50:37;12.77;;;8.20;;
45368;SDS011;51342;55.250;37.668;2022-11-11T13:15:16;15.48;;;8.82;;
45368;SDS011;51342;55.250;37.668;2022-11-11T13:18:11;15.15;;;8.70;;
45368;SDS011;51342;55.250;37.668;2022-11-11T13:24:29;13.05;;;8.30;;
45368;SDS011;51342;55.250;37.668;2022-11-11T13:33:49;14.57;;;8.05;;
45368;SDS011;51342;55.250;37.668;2022-11-11T13:36:45;13.13;;;8.53;;
45368;SDS011;51342;55.250;37.668;2022-11-11T13:39:40;14.88;;;8.77;;
45368;SDS011;51342;55.250;37.668;2022-11-11T13:42:37;15.67;;;8.30;;
45368;SDS011;51342;55.250;37.668;2022-11-11T13:45:33;14.60;;;8.37;;
45368;SDS011;51342;55.250;37.668;2022-11-11T13:48:42;15.27;;;8.10;;
45368;SDS011;51342;55.250;37.668;2022-11-11T13:51:42;14.38;;;8.10;;
45368;SDS011;51342;55.250;37.668;2022-11-11T13:54:36;12.97;;;7.93;;
45368;SDS011;51342;55.250;37.668;2022-11-11T13:57:30;11.50;;;7.43;;
45368;SDS011;51342;55.250;37.668;2022-11-11T14:00:25;11.75;;;7.47;;
45368;SDS011;51342;55.250;37.668;2022-11-11T14:09:03;11.82;;;6.80;;
45368;SDS011;51342;55.250;37.668;2022-11-11T14:12:18;12.07;;;6.78;;
45368;SDS011;51342;55.250;37.668;2022-11-11T14:15:45;10.40;;;6.57;;
45368;SDS011;51342;55.250;37.668;2022-11-11T14:18:37;10.65;;;7.18;;
45368;SDS011;51342;55.250;37.668;2022-11-11T14:21:42;10.53;;;7.03;;
45368;SDS011;51342;55.250;37.668;2022-11-11T14:24:45;13.18;;;6.65;;
45368;SDS011;51342;55.250;37.668;2022-11-11T14:27:36;10.80;;;6.60;;
45368;SDS011;51342;55.250;37.668;2022-11-11T14:30:36;11.10;;;6.00;;
45368;SDS011;51342;55.250;37.668;2022-11-11T14:34:02;9.20;;;5.90;;
45368;SDS011;51342;55.250;37.668;2022-11-11T14:36:55;11.40;;;6.63;;
45368;SDS011;51342;55.250;37.668;2022-11-11T14:39:51;9.00;;;5.60;;
45368;SDS011;51342;55.250;37.668;2022-11-11T14:42:44;7.68;;;5.10;;
45368;SDS011;51342;55.250;37.668;2022-11-11T14:51:42;8.07;;;5.50;;
45368;SDS011;51342;55.250;37.668;2022-11-11T14:54:36;7.70;;;5.17;;
45368;SDS011;51342;55.250;37.668;2022-11-11T14:57:39;7.55;;;5.30;;
45368;SDS011;51342;55.250;37.668;2022-11-11T15:01:19;7.15;;;4.72;;
45368;SDS011;51342;55.250;37.668;2022-11-11T15:03:52;8.27;;;5.53;;
45368;SDS011;51342;55.250;37.668;2022-11-11T15:06:45;9.33;;;5.23;;
45368;SDS011;51342;55.250;37.668;2022-11-11T15:09:49;10.43;;;6.15;;
45368;SDS011;51342;55.250;37.668;2022-11-11T15:25:24;7.95;;;5.75;;
45368;SDS011;51342;55.250;37.668;2022-11-11T15:31:41;8.97;;;5.57;;
45368;SDS011;51342;55.250;37.668;2022-11-11T15:38:08;8.25;;;5.65;;
45368;SDS011;51342;55.250;37.668;2022-11-11T15:41:01;7.23;;;4.80;;
45368;SDS011;51342;55.250;37.668;2022-11-11T15:43:51;6.55;;;4.70;;
45368;SDS011;51342;55.250;37.668;2022-11-11T15:46:42;8.02;;;5.35;;
45368;SDS011;51342;55.250;37.668;2022-11-11T15:49:41;9.68;;;5.13;;
45368;SDS011;51342;55.250;37.668;2022-11-11T15:52:34;6.67;;;4.97;;
45368;SDS011;51342;55.250;37.668;2022-11-11T15:55:31;10.77;;;6.27;;
45368;SDS011;51342;55.250;37.668;2022-11-11T15:58:24;8.98;;;5.95;;
45368;SDS011;51342;55.250;37.668;2022-11-11T16:01:19;8.17;;;5.50;;
45368;SDS011;51342;55.250;37.668;2022-11-11T16:04:22;6.93;;;4.55;;
45368;SDS011;51342;55.250;37.668;2022-11-11T16:07:19;6.63;;;4.63;;
45368;SDS011;51342;55.250;37.668;2022-11-11T16:10:13;8.05;;;5.07;;
45368;SDS011;51342;55.250;37.668;2022-11-11T16:13:13;7.57;;;5.20;;
45368;SDS011;51342;55.250;37.668;2022-11-11T16:16:11;9.10;;;6.27;;
45368;SDS011;51342;55.250;37.668;2022-11-11T16:22:27;10.57;;;6.13;;
45368;SDS011;51342;55.250;37.668;2022-11-11T16:25:20;9.23;;;5.75;;
45368;SDS011;51342;55.250;37.668;2022-11-11T16:28:11;8.93;;;6.10;;
45368;SDS011;51342;55.250;37.668;2022-11-11T16:37:20;9.90;;;6.40;;
45368;SDS011;51342;55.250;37.668;2022-11-11T16:43:22;8.80;;;6.70;;
45368;SDS011;51342;55.250;37.668;2022-11-11T16:49:27;8.37;;;6.00;;
45368;SDS011;51342;55.250;37.668;2022-11-11T16:52:22;8.13;;;5.70;;
45368;SDS011;51342;55.250;37.668;2022-11-11T16:55:18;8.07;;;6.10;;
45368;SDS011;51342;55.250;37.668;2022-11-11T16:58:20;7.63;;;5.82;;
45368;SDS011;51342;55.250;37.668;2022-11-11T17:01:10;8.07;;;4.97;;
45368;SDS011;51342;55.250;37.668;2022-11-11T17:04:01;11.53;;;5.87;;
45368;SDS011;51342;55.250;37.668;2022-11-11T17:06:55;10.33;;;6.03;;
45368;SDS011;51342;55.250;37.668;2022-11-11T17:09:47;11.82;;;6.20;;
45368;SDS011;51342;55.250;37.668;2022-11-11T17:12:38;8.27;;;6.00;;
45368;SDS011;51342;55.250;37.668;2022-11-11T17:15:28;9.20;;;6.50;;
45368;SDS011;51342;55.250;37.668;2022-11-11T17:18:18;10.43;;;6.73;;
45368;SDS011;51342;55.250;37.668;2022-11-11T17:21:08;11.07;;;6.37;;
45368;SDS011;51342;55.250;37.668;2022-11-11T17:24:01;10.68;;;6.65;;
45368;SDS011;51342;55.250;37.668;2022-11-11T17:26:53;11.13;;;6.50;;
45368;SDS011;51342;55.250;37.668;2022-11-11T17:29:43;11.40;;;6.50;;
45368;SDS011;51342;55.250;37.668;2022-11-11T17:32:33;8.57;;;6.13;;
45368;SDS011;51342;55.250;37.668;2022-11-11T17:35:23;9.97;;;6.57;;
45368;SDS011;51342;55.250;37.668;2022-11-11T17:38:13;9.23;;;6.77;;
45368;SDS011;51342;55.250;37.668;2022-11-11T17:41:03;10.93;;;6.83;;
45368;SDS011;51342;55.250;37.668;2022-11-11T17:43:53;10.93;;;6.20;;
45368;SDS011;51342;55.250;37.668;2022-11-11T17:46:43;11.17;;;6.67;;
45368;SDS011;51342;55.250;37.668;2022-11-11T17:49:33;10.47;;;6.87;;
45368;SDS011;51342;55.250;37.668;2022-11-11T17:52:23;10.23;;;7.47;;
45368;SDS011;51342;55.250;37.668;2022-11-11T17:55:13;11.83;;;7.00;;
45368;SDS011;51342;55.250;37.668;2022-11-11T17:58:03;10.10;;;6.90;;
45368;SDS011;51342;55.250;37.668;2022-11-11T18:00:53;10.97;;;6.37;;
45368;SDS011;51342;55.250;37.668;2022-11-11T18:03:43;10.70;;;7.30;;
45368;SDS011;51342;55.250;37.668;2022-11-11T18:06:33;8.30;;;6.17;;
45368;SDS011;51342;55.250;37.668;2022-11-11T18:09:23;11.13;;;7.07;;
45368;SDS011;51342;55.250;37.668;2022-11-11T18:12:13;10.18;;;7.20;;
45368;SDS011;51342;55.250;37.668;2022-11-11T18:15:04;9.77;;;6.83;;
45368;SDS011;51342;55.250;37.668;2022-11-11T18:17:54;8.90;;;6.20;;
45368;SDS011;51342;55.250;37.668;2022-11-11T18:20:44;9.00;;;6.23;;
45368;SDS011;51342;55.250;37.668;2022-11-11T18:23:35;9.43;;;6.30;;
45368;SDS011;51342;55.250;37.668;2022-11-11T18:26:26;9.63;;;6.93;;
45368;SDS011;51342;55.250;37.668;2022-11-11T18:29:16;11.23;;;7.17;;
45368;SDS011;51342;55.250;37.668;2022-11-11T18:32:06;10.27;;;7.37;;
45368;SDS011;51342;55.250;37.668;2022-11-11T18:34:56;10.00;;;6.28;;
45368;SDS011;51342;55.250;37.668;2022-11-11T18:37:46;10.67;;;6.80;;
45368;SDS011;51342;55.250;37.668;2022-11-11T18:40:36;9.27;;;6.40;;
45368;SDS011;51342;55.250;37.668;2022-11-11T18:43:26;12.00;;;7.10;;
45368;SDS011;51342;55.250;37.668;2022-11-11T18:46:18;11.90;;;7.00;;
45368;SDS011;51342;55.250;37.668;2022-11-11T18:49:12;12.43;;;7.20;;
45368;SDS011;51342;55.250;37.668;2022-11-11T18:52:03;9.93;;;6.23;;
45368;SDS011;51342;55.250;37.668;2022-11-11T18:54:53;11.73;;;6.73;;
45368;SDS011;51342;55.250;37.668;2022-11-11T18:57:43;8.57;;;6.33;;
45368;SDS011;51342;55.250;37.668;2022-11-11T19:00:33;9.90;;;6.63;;
45368;SDS011;51342;55.250;37.668;2022-11-11T19:03:22;10.57;;;6.60;;
45368;SDS011;51342;55.250;37.668;2022-11-11T19:06:12;10.73;;;7.07;;
45368;SDS011;51342;55.250;37.668;2022-11-11T19:09:12;12.60;;;7.67;;
45368;SDS011;51342;55.250;37.668;2022-11-11T19:12:02;9.73;;;6.80;;